createdAt,value
2022-08-08T00:01:21.087Z,13.66
2022-08-08T00:04:25.394Z,13.60
2022-08-08T00:07:23.268Z,13.62
2022-08-08T00:10:04.327Z,13.61
2022-08-08T00:12:48.469Z,13.72
2022-08-08T00:15:57.645Z,13.73
2022-08-08T00:18:38.109Z,13.58
2022-08-08T00:21:07.832Z,13.61
2022-08-08T00:23:42.798Z,13.44
2022-08-08T00:26:26.315Z,13.57
2022-08-08T00:29:45.672Z,13.26
2022-08-08T00:32:20.909Z,13.34
2022-08-08T00:35:18.851Z,13.27
2022-08-08T00:38:02.830Z,13.38
2022-08-08T00:41:11.790Z,13.33
2022-08-08T00:43:41.704Z,13.02
2022-08-08T00:46:58.831Z,12.91
2022-08-08T00:49:50.390Z,13.06
2022-08-08T00:53:13.998Z,12.61
2022-08-08T00:56:02.175Z,12.79
2022-08-08T00:58:54.721Z,12.80
2022-08-08T01:01:55.924Z,12.67
2022-08-08T01:04:54.754Z,12.52
2022-08-08T01:07:56.613Z,12.18
2022-08-08T01:11:11.371Z,12.53
2022-08-08T01:13:46.115Z,12.48
2022-08-08T01:16:29.070Z,12.89
2022-08-08T01:19:42.165Z,12.70
2022-08-08T01:22:46.044Z,12.49
2022-08-08T01:25:40.209Z,12.30
2022-08-08T01:28:48.178Z,12.80
2022-08-08T01:32:12.837Z,12.76
2022-08-08T01:34:39.620Z,12.50
2022-08-08T01:37:51.114Z,12.76
2022-08-08T01:40:37.697Z,12.34
2022-08-08T01:43:34.491Z,12.21
2022-08-08T01:46:21.785Z,12.18
2022-08-08T01:52:51.765Z,12.61
2022-08-08T01:55:27.013Z,12.26
2022-08-08T01:58:38.811Z,12.42
2022-08-08T02:01:53.737Z,12.24
2022-08-08T02:04:46.476Z,12.01
2022-08-08T02:07:22.216Z,12.22
2022-08-08T02:10:12.434Z,12.33
2022-08-08T02:13:00.505Z,12.16
2022-08-08T02:15:50.940Z,12.22
2022-08-08T02:18:40.556Z,12.48
2022-08-08T02:21:37.071Z,12.39
2022-08-08T02:24:14.701Z,12.14
2022-08-08T02:26:51.360Z,12.12
2022-08-08T02:30:03.264Z,12.18
2022-08-08T02:33:05.400Z,12.30
2022-08-08T02:36:05.225Z,12.15
2022-08-08T02:38:33.872Z,12.02
2022-08-08T02:41:59.492Z,12.21
2022-08-08T02:44:45.505Z,11.94
2022-08-08T02:47:40.111Z,11.93
2022-08-08T02:50:55.808Z,12.07
2022-08-08T02:53:51.127Z,12.12
2022-08-08T02:56:37.607Z,12.29
2022-08-08T02:59:58.376Z,11.85
2022-08-08T03:03:00.205Z,11.75
2022-08-08T03:05:44.875Z,11.66
2022-08-08T03:08:35.023Z,12.10
2022-08-08T03:11:13.911Z,12.07
2022-08-08T03:16:02.089Z,12.15
2022-08-08T03:16:51.109Z,11.37
2022-08-08T03:19:56.184Z,11.31
2022-08-08T03:22:38.148Z,11.49
2022-08-08T03:25:14.813Z,11.74
2022-08-08T03:27:57.716Z,11.77
2022-08-08T03:30:27.466Z,11.52
2022-08-08T03:33:55.468Z,11.80
2022-08-08T03:36:02.732Z,11.84
2022-08-08T03:38:53.402Z,11.97
2022-08-08T03:42:28.446Z,11.80
2022-08-08T03:44:05.456Z,11.81
2022-08-08T03:46:47.490Z,11.21
2022-08-08T03:49:58.846Z,11.43
2022-08-08T03:52:06.329Z,11.64
2022-08-08T03:55:01.917Z,11.11
2022-08-08T03:58:34.408Z,11.55
2022-08-08T04:00:19.819Z,11.86
2022-08-08T04:03:11.384Z,11.92
2022-08-08T04:05:39.998Z,11.20
2022-08-08T04:08:33.444Z,11.29
2022-08-08T04:11:10.895Z,11.69
2022-08-08T04:14:03.421Z,11.84
2022-08-08T04:16:38.494Z,11.95
2022-08-08T04:19:23.967Z,12.00
2022-08-08T04:21:56.445Z,11.40
2022-08-08T04:24:29.327Z,11.57
2022-08-08T04:26:59.964Z,11.76
2022-08-08T04:29:36.813Z,11.55
2022-08-08T04:32:07.463Z,11.94
2022-08-08T04:34:42.942Z,11.83
2022-08-08T04:37:31.618Z,11.94
2022-08-08T04:40:05.869Z,11.83
2022-08-08T04:42:55.818Z,12.06
2022-08-08T04:45:26.846Z,11.75
2022-08-08T04:47:57.168Z,11.83
2022-08-08T04:50:32.627Z,11.45
2022-08-08T04:53:14.071Z,12.10
2022-08-08T04:55:55.965Z,12.42
2022-08-08T04:58:26.588Z,12.57
2022-08-08T05:00:54.197Z,12.26
2022-08-08T05:04:09.957Z,12.14
2022-08-08T05:06:12.752Z,12.51
2022-08-08T05:08:42.856Z,12.35
2022-08-08T05:11:18.592Z,12.30
2022-08-08T05:13:57.640Z,12.43
2022-08-08T05:16:53.078Z,12.69
2022-08-08T05:20:09.313Z,12.79
2022-08-08T05:22:10.384Z,12.88
2022-08-08T05:24:42.037Z,13.16
2022-08-08T05:27:16.103Z,13.33
2022-08-08T05:29:42.742Z,13.57
2022-08-08T05:32:10.004Z,13.58
2022-08-08T05:34:49.876Z,13.50
2022-08-08T05:37:39.422Z,13.63
2022-08-08T05:40:14.682Z,13.89
2022-08-08T05:42:49.641Z,14.11
2022-08-08T05:45:25.500Z,14.37
2022-08-08T05:48:11.367Z,14.59
2022-08-08T05:50:41.962Z,14.96
2022-08-08T05:53:54.640Z,15.13
2022-08-08T05:56:07.715Z,15.46
2022-08-08T05:58:53.791Z,15.60
2022-08-08T06:01:52.565Z,15.64
2022-08-08T06:04:23.691Z,15.65
2022-08-08T06:06:56.447Z,15.83
2022-08-08T06:09:58.187Z,16.05
2022-08-08T06:12:30.198Z,16.34
2022-08-08T06:15:03.072Z,16.90
2022-08-08T06:17:50.912Z,17.32
2022-08-08T06:20:21.911Z,17.68
2022-08-08T06:22:50.527Z,17.88
2022-08-08T06:26:35.760Z,17.98
2022-08-08T06:28:29.627Z,18.03
2022-08-08T06:31:03.430Z,18.30
2022-08-08T06:34:27.698Z,18.54
2022-08-08T06:36:53.296Z,19.02
2022-08-08T06:39:22.744Z,19.10
2022-08-08T06:41:58.174Z,18.99
2022-08-08T06:44:29.157Z,19.16
2022-08-08T06:46:59.074Z,19.25
2022-08-08T06:49:55.097Z,19.42
2022-08-08T06:52:16.007Z,19.47
2022-08-08T06:54:44.519Z,19.67
2022-08-08T06:57:16.138Z,19.92
2022-08-08T07:00:12.442Z,19.91
2022-08-08T07:02:32.966Z,20.10
2022-08-08T07:05:11.960Z,20.16
2022-08-08T07:08:08.792Z,20.18
2022-08-08T07:10:47.620Z,20.05
2022-08-08T07:13:25.183Z,20.17
2022-08-08T07:16:10.739Z,20.31
2022-08-08T07:19:10.183Z,20.40
2022-08-08T07:21:50.625Z,20.54
2022-08-08T07:24:35.320Z,20.66
2022-08-08T07:27:09.345Z,20.74
2022-08-08T07:30:02.488Z,20.77
2022-08-08T07:32:27.176Z,20.72
2022-08-08T07:35:00.895Z,20.42
2022-08-08T07:37:42.607Z,20.39
2022-08-08T07:40:29.900Z,20.22
2022-08-08T07:43:09.492Z,20.30
2022-08-08T07:46:05.966Z,20.47
2022-08-08T07:48:30.043Z,20.46
2022-08-08T07:51:00.995Z,20.58
2022-08-08T07:54:01.248Z,20.64
2022-08-08T07:56:35.326Z,20.94
2022-08-08T07:59:03.499Z,20.76
2022-08-08T08:02:34.769Z,21.04
2022-08-08T08:04:29.101Z,20.94
2022-08-08T08:07:02.348Z,21.38
2022-08-08T08:09:39.154Z,21.22
2022-08-08T08:12:31.946Z,21.26
2022-08-08T08:15:04.957Z,21.30
2022-08-08T08:17:48.457Z,21.43
2022-08-08T08:20:30.275Z,21.67
2022-08-08T08:22:59.661Z,21.62
2022-08-08T08:25:42.258Z,21.64
2022-08-08T08:28:16.913Z,21.39
2022-08-08T08:30:47.772Z,21.51
2022-08-08T08:33:14.915Z,21.96
2022-08-08T08:36:19.149Z,21.90
2022-08-08T08:38:29.855Z,21.79
2022-08-08T08:41:06.235Z,21.84
2022-08-08T08:43:46.347Z,21.81
2022-08-08T08:46:17.551Z,22.27
2022-08-08T08:48:49.228Z,22.49
2022-08-08T08:51:18.095Z,22.80
2022-08-08T08:53:59.943Z,22.87
2022-08-08T08:56:36.230Z,23.10
2022-08-08T08:59:17.933Z,23.11
2022-08-08T09:01:53.826Z,23.13
2022-08-08T09:04:37.923Z,23.28
2022-08-08T09:07:12.778Z,23.28
2022-08-08T09:09:58.156Z,23.63
2022-08-08T09:12:35.655Z,23.96
2022-08-08T09:15:06.228Z,24.06
2022-08-08T09:17:42.083Z,24.03
2022-08-08T09:21:59.387Z,24.09
2022-08-08T09:23:11.271Z,24.09
2022-08-08T09:25:54.982Z,24.13
2022-08-08T09:28:37.365Z,24.08
2022-08-08T09:31:15.285Z,24.05
2022-08-08T09:34:15.931Z,24.01
2022-08-08T09:36:40.307Z,23.97
2022-08-08T09:39:21.672Z,24.16
2022-08-08T09:42:20.316Z,24.41
2022-08-08T09:44:54.558Z,24.57
2022-08-08T09:48:02.083Z,24.31
2022-08-08T09:50:14.316Z,24.36
2022-08-08T09:52:56.116Z,24.50
2022-08-08T09:55:51.527Z,24.55
2022-08-08T09:58:27.952Z,24.88
2022-08-08T10:01:15.172Z,25.29
2022-08-08T10:04:02.265Z,25.26
2022-08-08T10:06:32.589Z,25.33
2022-08-08T10:09:02.208Z,25.11
2022-08-08T10:12:28.028Z,25.39
2022-08-08T10:14:34.866Z,25.65
2022-08-08T10:18:06.106Z,25.38
2022-08-08T10:20:04.228Z,25.52
2022-08-08T10:22:33.806Z,25.89
2022-08-08T10:25:05.921Z,25.74
2022-08-08T10:27:43.050Z,25.47
2022-08-08T10:30:32.898Z,25.56
2022-08-08T10:33:00.426Z,25.28
2022-08-08T10:36:08.371Z,25.17
2022-08-08T10:38:20.274Z,25.38
2022-08-08T10:40:51.579Z,25.52
2022-08-08T10:43:20.013Z,25.59
2022-08-08T10:45:56.841Z,25.59
2022-08-08T10:48:57.764Z,25.81
2022-08-08T10:51:47.114Z,26.15
2022-08-08T10:54:26.957Z,25.91
2022-08-08T10:57:01.454Z,26.14
2022-08-08T10:59:31.334Z,26.16
2022-08-08T11:02:07.469Z,25.83
2022-08-08T11:04:45.038Z,25.97
2022-08-08T11:08:31.070Z,26.29
2022-08-08T11:10:28.480Z,26.34
2022-08-08T11:16:01.046Z,25.87
2022-08-08T11:18:36.344Z,25.84
2022-08-08T11:21:08.797Z,26.09
2022-08-08T11:23:41.416Z,26.22
2022-08-08T11:26:18.700Z,26.33
2022-08-08T11:28:47.157Z,26.20
2022-08-08T11:31:17.163Z,26.17
2022-08-08T11:34:02.956Z,26.02
2022-08-08T11:36:32.776Z,25.63
2022-08-08T11:39:04.863Z,25.69
2022-08-08T11:41:32.593Z,25.63
2022-08-08T11:44:02.130Z,25.72
2022-08-08T11:46:34.493Z,25.91
2022-08-08T11:49:05.025Z,25.81
2022-08-08T11:51:39.633Z,25.86
2022-08-08T11:54:26.875Z,25.98
2022-08-08T11:56:57.895Z,25.56
2022-08-08T11:59:58.637Z,25.90
2022-08-08T12:02:36.997Z,26.20
2022-08-08T12:05:13.240Z,26.18
2022-08-08T12:07:58.735Z,25.75
2022-08-08T12:10:28.216Z,26.07
2022-08-08T12:13:22.069Z,26.08
2022-08-08T12:16:17.465Z,26.06
2022-08-08T12:18:45.294Z,25.98
2022-08-08T12:21:59.590Z,26.00
2022-08-08T12:24:19.943Z,25.72
2022-08-08T12:26:52.062Z,25.88
2022-08-08T12:29:40.224Z,26.02
2022-08-08T12:32:19.535Z,26.05
2022-08-08T12:34:48.473Z,25.96
2022-08-08T12:37:39.913Z,25.88
2022-08-08T12:40:22.178Z,25.71
2022-08-08T12:42:49.882Z,25.80
2022-08-08T12:45:54.175Z,25.80
2022-08-08T12:48:32.067Z,25.90
2022-08-08T12:50:57.742Z,25.93
2022-08-08T12:53:37.829Z,25.95
2022-08-08T12:56:19.298Z,26.00
2022-08-08T12:58:54.358Z,25.98
2022-08-08T13:01:36.350Z,25.90
2022-08-08T13:04:18.322Z,26.25
2022-08-08T13:06:55.672Z,26.35
2022-08-08T13:09:43.152Z,26.40
2022-08-08T13:12:46.973Z,26.34
2022-08-08T13:15:19.604Z,26.29
2022-08-08T13:18:07.789Z,26.10
2022-08-08T13:20:44.857Z,26.23
2022-08-08T13:23:36.144Z,26.27
2022-08-08T13:26:15.687Z,26.27
2022-08-08T13:28:45.981Z,26.33
2022-08-08T13:31:16.573Z,26.22
2022-08-08T13:33:47.357Z,26.24
2022-08-08T13:36:18.030Z,26.30
2022-08-08T13:38:53.283Z,26.24
2022-08-08T13:41:21.862Z,26.24
2022-08-08T13:43:49.983Z,26.13
2022-08-08T13:46:26.995Z,26.20
2022-08-08T13:49:12.344Z,26.29
2022-08-08T13:51:57.516Z,26.29
2022-08-08T13:54:29.520Z,26.37
2022-08-08T13:57:04.026Z,26.34
2022-08-08T13:59:48.543Z,26.28
2022-08-08T14:02:20.376Z,26.18
2022-08-08T14:05:09.056Z,26.29
2022-08-08T14:07:50.097Z,26.18
2022-08-08T14:10:33.381Z,26.25
2022-08-08T14:13:10.047Z,26.23
2022-08-08T14:16:15.973Z,26.19
2022-08-08T14:18:55.091Z,26.33
2022-08-08T14:21:39.689Z,26.33
2022-08-08T14:24:08.823Z,26.27
2022-08-08T14:26:41.685Z,26.36
2022-08-08T14:29:28.291Z,26.48
2022-08-08T14:32:12.580Z,26.48
2022-08-08T14:34:43.485Z,26.57
2022-08-08T14:37:16.789Z,26.52
2022-08-08T14:39:50.499Z,26.48
2022-08-08T14:42:29.750Z,26.38
2022-08-08T14:45:00.836Z,26.54
2022-08-08T14:47:36.162Z,26.53
2022-08-08T14:50:17.307Z,26.39
2022-08-08T14:53:04.295Z,26.45
2022-08-08T14:55:41.336Z,26.63
2022-08-08T14:58:11.831Z,26.40
2022-08-08T15:00:44.894Z,26.38
2022-08-08T15:03:14.733Z,26.32
2022-08-08T15:05:54.224Z,26.54
2022-08-08T15:08:35.055Z,26.61
2022-08-08T15:11:11.472Z,26.62
2022-08-08T15:14:01.419Z,26.54
2022-08-08T15:16:29.118Z,26.64
2022-08-08T15:18:55.773Z,26.48
2022-08-08T15:21:22.445Z,26.47
2022-08-08T15:23:54.248Z,26.46
2022-08-08T15:26:21.119Z,26.53
2022-08-08T15:28:53.946Z,26.52
2022-08-08T15:31:55.967Z,26.61
2022-08-08T15:34:08.573Z,26.65
2022-08-08T15:36:47.480Z,26.70
2022-08-08T15:39:14.562Z,26.65
2022-08-08T15:41:45.778Z,26.62
2022-08-08T15:44:13.829Z,26.56
2022-08-08T15:46:45.711Z,26.55
2022-08-08T15:49:20.639Z,26.70
2022-08-08T15:51:50.106Z,26.64
2022-08-08T15:54:37.364Z,26.56
2022-08-08T15:57:04.590Z,26.53
2022-08-08T16:00:18.226Z,26.55
2022-08-08T16:02:21.723Z,26.67
2022-08-08T16:04:58.471Z,26.66
2022-08-08T16:07:39.620Z,26.63
2022-08-08T16:13:11.080Z,26.57
2022-08-08T16:13:30.948Z,26.60
2022-08-08T16:15:58.544Z,26.55
2022-08-08T16:18:33.010Z,26.54
2022-08-08T16:21:00.536Z,26.48
2022-08-08T16:23:31.714Z,26.47
2022-08-08T16:26:13.194Z,26.46
2022-08-08T16:28:45.938Z,26.38
2022-08-08T16:31:13.049Z,26.33
2022-08-08T16:33:40.463Z,26.40
2022-08-08T16:36:09.794Z,26.45
2022-08-08T16:38:44.556Z,26.40
2022-08-08T16:41:18.492Z,26.36
2022-08-08T16:43:51.006Z,26.20
2022-08-08T16:46:37.111Z,26.25
2022-08-08T16:49:06.129Z,26.18
2022-08-08T16:55:04.275Z,26.06
2022-08-08T16:55:22.688Z,25.92
2022-08-08T16:58:12.680Z,25.83
2022-08-08T17:00:01.657Z,25.84
2022-08-08T17:02:39.461Z,25.81
2022-08-08T17:05:08.306Z,25.76
2022-08-08T17:07:37.804Z,25.75
2022-08-08T17:10:08.449Z,25.67
2022-08-08T17:12:36.894Z,25.59
2022-08-08T17:15:17.970Z,25.56
2022-08-08T17:18:03.713Z,25.50
2022-08-08T17:20:39.668Z,25.35
2022-08-08T17:23:25.868Z,25.30
2022-08-08T17:25:55.382Z,25.17
2022-08-08T17:28:34.134Z,25.05
2022-08-08T17:31:39.444Z,25.03
2022-08-08T17:34:36.297Z,24.97
2022-08-08T17:36:38.278Z,24.88
2022-08-08T17:40:05.173Z,24.82
2022-08-08T17:42:11.709Z,24.70
2022-08-08T17:44:39.759Z,24.68
2022-08-08T17:47:10.993Z,24.63
2022-08-08T17:49:43.739Z,24.61
2022-08-08T17:52:10.699Z,24.55
2022-08-08T17:54:37.504Z,24.44
2022-08-08T17:57:05.819Z,24.42
2022-08-08T17:59:36.514Z,24.39
2022-08-08T18:02:18.533Z,24.22
2022-08-08T18:04:51.117Z,24.23
2022-08-08T18:08:03.462Z,24.17
2022-08-08T18:10:06.359Z,23.99
2022-08-08T18:12:34.337Z,23.92
2022-08-08T18:15:01.743Z,23.86
2022-08-08T18:18:27.503Z,23.81
2022-08-08T18:20:42.653Z,23.71
2022-08-08T18:23:01.948Z,23.64
2022-08-08T18:25:37.403Z,23.54
2022-08-08T18:28:04.708Z,23.39
2022-08-08T18:30:33.032Z,23.24
2022-08-08T18:32:59.637Z,23.09
2022-08-08T18:35:34.267Z,22.98
2022-08-08T18:38:16.838Z,22.87
2022-08-08T18:40:46.029Z,22.80
2022-08-08T18:43:16.171Z,22.69
2022-08-08T18:46:06.175Z,22.66
2022-08-08T18:48:31.498Z,22.65
2022-08-08T18:50:59.068Z,22.62
2022-08-08T18:53:50.908Z,22.55
2022-08-08T18:56:24.183Z,22.40
2022-08-08T18:58:52.132Z,22.32
2022-08-08T19:02:27.621Z,22.19
2022-08-08T19:04:10.878Z,22.07
2022-08-08T19:06:39.532Z,21.99
2022-08-08T19:09:13.580Z,21.91
2022-08-08T19:11:46.480Z,21.81
2022-08-08T19:14:20.544Z,21.87
2022-08-08T19:16:48.345Z,21.76
2022-08-08T19:19:15.943Z,21.77
2022-08-08T19:21:49.627Z,21.76
2022-08-08T19:24:41.887Z,21.79
2022-08-08T19:27:05.791Z,21.68
2022-08-08T19:29:34.628Z,21.56
2022-08-08T19:32:12.746Z,21.38
2022-08-08T19:34:47.765Z,21.29
2022-08-08T19:37:15.948Z,21.24
2022-08-08T19:39:43.543Z,21.28
2022-08-08T19:42:13.699Z,21.09
2022-08-08T19:44:45.860Z,21.01
2022-08-08T19:47:15.795Z,21.01
2022-08-08T19:49:43.115Z,20.96
2022-08-08T19:52:13.514Z,20.98
2022-08-08T19:54:40.438Z,20.93
2022-08-08T19:57:09.964Z,20.85
2022-08-08T19:59:41.268Z,20.81
2022-08-08T20:02:10.880Z,20.79
2022-08-08T20:04:38.527Z,20.81
2022-08-08T20:08:37.434Z,20.85
2022-08-08T20:09:57.095Z,20.72
2022-08-08T20:12:34.496Z,20.63
2022-08-08T20:15:14.127Z,20.52
2022-08-08T20:17:43.659Z,20.57
2022-08-08T20:20:18.902Z,20.52
2022-08-08T20:22:53.828Z,20.52
2022-08-08T20:25:21.224Z,20.46
2022-08-08T20:27:49.460Z,20.47
2022-08-08T20:30:38.973Z,20.44
2022-08-08T20:33:08.216Z,20.34
2022-08-08T20:35:58.047Z,20.25
2022-08-08T20:38:29.174Z,20.18
2022-08-08T20:40:59.260Z,20.15
2022-08-08T20:43:44.262Z,20.11
2022-08-08T20:46:12.814Z,20.00
2022-08-08T20:48:39.433Z,19.79
2022-08-08T20:51:07.859Z,19.77
2022-08-08T20:53:59.936Z,19.77
2022-08-08T20:56:35.015Z,19.70
2022-08-08T20:59:09.195Z,19.66
2022-08-08T21:01:44.214Z,19.59
2022-08-08T21:04:23.775Z,19.48
2022-08-08T21:06:55.099Z,19.41
2022-08-08T21:09:21.985Z,19.36
2022-08-08T21:12:02.789Z,19.32
2022-08-08T21:14:34.358Z,19.27
2022-08-08T21:17:06.390Z,19.17
2022-08-08T21:19:45.324Z,19.14
2022-08-08T21:22:13.784Z,19.19
2022-08-08T21:24:42.091Z,19.15
2022-08-08T21:28:05.300Z,19.06
2022-08-08T21:30:10.928Z,18.95
2022-08-08T21:32:45.822Z,18.87
2022-08-08T21:36:16.671Z,18.86
2022-08-08T21:38:05.688Z,18.61
2022-08-08T21:40:38.467Z,18.38
2022-08-08T21:43:07.814Z,18.21
2022-08-08T21:48:00.374Z,18.02
2022-08-08T21:48:30.118Z,17.87
2022-08-08T21:51:10.215Z,17.76
2022-08-08T21:54:36.961Z,17.69
2022-08-08T21:56:34.162Z,17.54
2022-08-08T21:59:08.822Z,17.34
2022-08-08T22:01:40.706Z,17.17
2022-08-08T22:04:11.059Z,17.01
2022-08-08T22:06:40.393Z,16.90
2022-08-08T22:09:09.059Z,16.78
2022-08-08T22:11:58.792Z,16.69
2022-08-08T22:14:31.416Z,16.57
2022-08-08T22:17:01.118Z,16.52
2022-08-08T22:19:29.821Z,16.47
2022-08-08T22:21:57.397Z,16.40
2022-08-08T22:24:28.488Z,16.34
2022-08-08T22:27:02.367Z,16.26
2022-08-08T22:29:59.127Z,16.20
2022-08-08T22:32:19.105Z,16.14
2022-08-08T22:34:50.799Z,16.19
2022-08-08T22:37:48.853Z,16.19
2022-08-08T22:40:16.387Z,16.08
2022-08-08T22:42:43.297Z,16.08
2022-08-08T22:45:13.717Z,16.11
2022-08-08T22:47:47.363Z,16.05
2022-08-08T22:50:25.415Z,15.95
2022-08-08T22:53:22.438Z,15.91
2022-08-08T22:55:58.724Z,15.93
2022-08-08T22:58:33.957Z,16.02
2022-08-08T23:02:01.212Z,16.05
2022-08-08T23:03:55.513Z,15.99
2022-08-08T23:06:26.765Z,15.93
2022-08-08T23:08:58.606Z,15.98
2022-08-08T23:11:31.147Z,16.02
2022-08-08T23:14:19.402Z,16.04
2022-08-08T23:16:57.975Z,16.08
2022-08-08T23:19:27.396Z,16.03
2022-08-08T23:21:57.793Z,15.90
2022-08-08T23:24:24.397Z,15.93
2022-08-08T23:26:55.265Z,15.82
2022-08-08T23:29:24.803Z,15.68
2022-08-08T23:31:51.891Z,15.50
2022-08-08T23:34:19.773Z,15.39
2022-08-08T23:36:48.490Z,15.40
2022-08-08T23:39:15.632Z,15.44
2022-08-08T23:41:46.829Z,15.55
2022-08-08T23:44:18.604Z,15.55
2022-08-08T23:49:04.329Z,15.56
2022-08-08T23:49:34.246Z,15.62
2022-08-08T23:52:07.173Z,15.69
2022-08-08T23:54:43.574Z,15.51
2022-08-08T23:57:39.068Z,15.43
